sensor_id;sensor_type;location;lat;lon;timestamp;P1;durP1;ratioP1;P2;durP2;ratioP2
43457;SDS011;29046;54.184;18.680;2023-02-11T00:01:09;32.00;;;11.80;;
43457;SDS011;29046;54.184;18.680;2023-02-11T00:03:57;27.77;;;10.45;;
43457;SDS011;29046;54.184;18.680;2023-02-11T00:06:38;34.47;;;10.63;;
43457;SDS011;29046;54.184;18.680;2023-02-11T00:09:19;14.20;;;7.13;;
43457;SDS011;29046;54.184;18.680;2023-02-11T00:11:59;16.88;;;7.88;;
43457;SDS011;29046;54.184;18.680;2023-02-11T00:14:47;26.75;;;11.68;;
43457;SDS011;29046;54.184;18.680;2023-02-11T00:17:21;21.35;;;9.57;;
43457;SDS011;29046;54.184;18.680;2023-02-11T00:20:09;31.13;;;12.77;;
43457;SDS011;29046;54.184;18.680;2023-02-11T00:22:43;28.58;;;13.63;;
43457;SDS011;29046;54.184;18.680;2023-02-11T00:25:31;25.27;;;11.63;;
43457;SDS011;29046;54.184;18.680;2023-02-11T00:28:05;24.73;;;9.90;;
43457;SDS011;29046;54.184;18.680;2023-02-11T00:30:56;31.77;;;14.25;;
43457;SDS011;29046;54.184;18.680;2023-02-11T00:33:37;33.75;;;13.25;;
43457;SDS011;29046;54.184;18.680;2023-02-11T00:36:26;23.63;;;11.27;;
43457;SDS011;29046;54.184;18.680;2023-02-11T00:39:00;31.42;;;12.63;;
43457;SDS011;29046;54.184;18.680;2023-02-11T00:41:48;22.00;;;11.38;;
43457;SDS011;29046;54.184;18.680;2023-02-11T00:44:22;29.13;;;12.63;;
43457;SDS011;29046;54.184;18.680;2023-02-11T00:47:10;25.60;;;12.68;;
43457;SDS011;29046;54.184;18.680;2023-02-11T00:49:50;24.17;;;10.07;;
43457;SDS011;29046;54.184;18.680;2023-02-11T00:52:39;25.55;;;10.90;;
43457;SDS011;29046;54.184;18.680;2023-02-11T00:55:19;25.27;;;10.52;;
43457;SDS011;29046;54.184;18.680;2023-02-11T00:58:07;29.30;;;12.15;;
43457;SDS011;29046;54.184;18.680;2023-02-11T01:00:48;25.63;;;12.85;;
43457;SDS011;29046;54.184;18.680;2023-02-11T01:03:28;34.33;;;15.13;;
43457;SDS011;29046;54.184;18.680;2023-02-11T01:06:09;30.92;;;14.02;;
43457;SDS011;29046;54.184;18.680;2023-02-11T01:08:50;47.33;;;17.48;;
43457;SDS011;29046;54.184;18.680;2023-02-11T01:11:30;25.67;;;10.32;;
43457;SDS011;29046;54.184;18.680;2023-02-11T01:14:11;37.13;;;15.48;;
43457;SDS011;29046;54.184;18.680;2023-02-11T01:16:52;32.83;;;11.95;;
43457;SDS011;29046;54.184;18.680;2023-02-11T01:19:33;41.42;;;12.90;;
43457;SDS011;29046;54.184;18.680;2023-02-11T01:22:14;23.60;;;11.13;;
43457;SDS011;29046;54.184;18.680;2023-02-11T01:24:55;31.08;;;11.25;;
43457;SDS011;29046;54.184;18.680;2023-02-11T01:27:35;34.80;;;15.20;;
43457;SDS011;29046;54.184;18.680;2023-02-11T01:30:23;29.85;;;13.27;;
43457;SDS011;29046;54.184;18.680;2023-02-11T01:32:57;25.40;;;12.48;;
43457;SDS011;29046;54.184;18.680;2023-02-11T01:35:45;27.13;;;9.73;;
43457;SDS011;29046;54.184;18.680;2023-02-11T01:38:23;33.95;;;14.10;;
43457;SDS011;29046;54.184;18.680;2023-02-11T01:41:18;42.90;;;14.25;;
43457;SDS011;29046;54.184;18.680;2023-02-11T01:43:52;21.08;;;11.23;;
43457;SDS011;29046;54.184;18.680;2023-02-11T01:46:40;20.40;;;11.32;;
43457;SDS011;29046;54.184;18.680;2023-02-11T01:49:16;17.58;;;10.73;;
43457;SDS011;29046;54.184;18.680;2023-02-11T01:52:17;34.83;;;14.98;;
43457;SDS011;29046;54.184;18.680;2023-02-11T01:55:04;22.77;;;11.43;;
43457;SDS011;29046;54.184;18.680;2023-02-11T01:58:11;23.67;;;12.75;;
43457;SDS011;29046;54.184;18.680;2023-02-11T02:00:51;30.50;;;13.05;;
43457;SDS011;29046;54.184;18.680;2023-02-11T02:03:39;35.20;;;13.23;;
43457;SDS011;29046;54.184;18.680;2023-02-11T02:06:17;30.30;;;17.35;;
43457;SDS011;29046;54.184;18.680;2023-02-11T02:09:06;29.17;;;13.15;;
43457;SDS011;29046;54.184;18.680;2023-02-11T02:11:49;28.23;;;12.43;;
43457;SDS011;29046;54.184;18.680;2023-02-11T02:14:30;28.17;;;12.73;;
43457;SDS011;29046;54.184;18.680;2023-02-11T02:17:05;33.25;;;15.10;;
43457;SDS011;29046;54.184;18.680;2023-02-11T02:20:09;38.75;;;17.42;;
43457;SDS011;29046;54.184;18.680;2023-02-11T02:28:46;29.83;;;13.90;;
43457;SDS011;29046;54.184;18.680;2023-02-11T02:35:01;34.90;;;16.13;;
43457;SDS011;29046;54.184;18.680;2023-02-11T02:38:00;25.08;;;10.75;;
43457;SDS011;29046;54.184;18.680;2023-02-11T02:46:16;34.55;;;15.15;;
43457;SDS011;29046;54.184;18.680;2023-02-11T02:48:50;34.83;;;16.27;;
43457;SDS011;29046;54.184;18.680;2023-02-11T02:57:37;40.15;;;17.10;;
43457;SDS011;29046;54.184;18.680;2023-02-11T03:03:06;30.60;;;13.45;;
43457;SDS011;29046;54.184;18.680;2023-02-11T03:05:56;31.90;;;15.38;;
43457;SDS011;29046;54.184;18.680;2023-02-11T03:12:17;35.58;;;15.00;;
43457;SDS011;29046;54.184;18.680;2023-02-11T03:15:06;32.60;;;15.98;;
43457;SDS011;29046;54.184;18.680;2023-02-11T03:17:47;38.35;;;15.50;;
43457;SDS011;29046;54.184;18.680;2023-02-11T03:20:36;36.22;;;16.48;;
43457;SDS011;29046;54.184;18.680;2023-02-11T03:29:03;26.75;;;14.20;;
43457;SDS011;29046;54.184;18.680;2023-02-11T03:32:10;30.13;;;11.35;;
43457;SDS011;29046;54.184;18.680;2023-02-11T03:34:56;26.38;;;12.85;;
43457;SDS011;29046;54.184;18.680;2023-02-11T03:37:59;31.50;;;14.40;;
43457;SDS011;29046;54.184;18.680;2023-02-11T03:43:21;23.95;;;12.02;;
43457;SDS011;29046;54.184;18.680;2023-02-11T03:46:04;30.15;;;13.48;;
43457;SDS011;29046;54.184;18.680;2023-02-11T03:48:48;38.25;;;18.27;;
43457;SDS011;29046;54.184;18.680;2023-02-11T03:51:31;22.27;;;11.82;;
43457;SDS011;29046;54.184;18.680;2023-02-11T03:54:13;27.45;;;14.52;;
43457;SDS011;29046;54.184;18.680;2023-02-11T03:56:55;25.65;;;12.18;;
43457;SDS011;29046;54.184;18.680;2023-02-11T03:59:52;26.73;;;11.95;;
43457;SDS011;29046;54.184;18.680;2023-02-11T04:02:28;23.30;;;12.10;;
43457;SDS011;29046;54.184;18.680;2023-02-11T04:05:24;30.45;;;14.00;;
43457;SDS011;29046;54.184;18.680;2023-02-11T04:07:57;38.30;;;17.45;;
43457;SDS011;29046;54.184;18.680;2023-02-11T04:10:45;37.53;;;15.77;;
43457;SDS011;29046;54.184;18.680;2023-02-11T04:13:18;37.38;;;14.65;;
43457;SDS011;29046;54.184;18.680;2023-02-11T04:16:13;26.35;;;11.15;;
43457;SDS011;29046;54.184;18.680;2023-02-11T04:19:07;17.85;;;9.80;;
43457;SDS011;29046;54.184;18.680;2023-02-11T04:21:40;36.80;;;17.48;;
43457;SDS011;29046;54.184;18.680;2023-02-11T04:24:28;27.00;;;12.95;;
43457;SDS011;29046;54.184;18.680;2023-02-11T04:27:01;40.72;;;17.80;;
43457;SDS011;29046;54.184;18.680;2023-02-11T04:29:49;30.38;;;13.05;;
43457;SDS011;29046;54.184;18.680;2023-02-11T04:32:23;29.85;;;13.02;;
43457;SDS011;29046;54.184;18.680;2023-02-11T04:35:11;37.03;;;15.50;;
43457;SDS011;29046;54.184;18.680;2023-02-11T04:37:45;34.10;;;14.07;;
43457;SDS011;29046;54.184;18.680;2023-02-11T04:40:33;31.55;;;15.35;;
43457;SDS011;29046;54.184;18.680;2023-02-11T04:43:13;32.35;;;14.02;;
43457;SDS011;29046;54.184;18.680;2023-02-11T04:46:01;33.50;;;14.75;;
43457;SDS011;29046;54.184;18.680;2023-02-11T04:48:35;33.28;;;15.73;;
43457;SDS011;29046;54.184;18.680;2023-02-11T04:51:23;34.03;;;16.15;;
43457;SDS011;29046;54.184;18.680;2023-02-11T04:53:57;28.15;;;13.40;;
43457;SDS011;29046;54.184;18.680;2023-02-11T04:56:45;28.13;;;15.63;;
43457;SDS011;29046;54.184;18.680;2023-02-11T04:59:19;32.22;;;14.00;;
43457;SDS011;29046;54.184;18.680;2023-02-11T05:02:07;24.45;;;12.32;;
43457;SDS011;29046;54.184;18.680;2023-02-11T05:04:47;33.50;;;14.80;;
43457;SDS011;29046;54.184;18.680;2023-02-11T05:07:35;29.10;;;12.02;;
43457;SDS011;29046;54.184;18.680;2023-02-11T05:10:09;32.10;;;10.13;;
43457;SDS011;29046;54.184;18.680;2023-02-11T05:12:57;23.35;;;12.68;;
43457;SDS011;29046;54.184;18.680;2023-02-11T05:15:37;19.27;;;10.63;;
43457;SDS011;29046;54.184;18.680;2023-02-11T05:18:25;12.32;;;6.97;;
43457;SDS011;29046;54.184;18.680;2023-02-11T05:21:04;27.13;;;12.90;;
43457;SDS011;29046;54.184;18.680;2023-02-11T05:23:51;25.05;;;12.93;;
43457;SDS011;29046;54.184;18.680;2023-02-11T05:26:25;29.83;;;13.68;;
43457;SDS011;29046;54.184;18.680;2023-02-11T05:29:13;22.73;;;11.68;;
43457;SDS011;29046;54.184;18.680;2023-02-11T05:31:54;21.67;;;11.80;;
43457;SDS011;29046;54.184;18.680;2023-02-11T05:34:42;28.98;;;13.80;;
43457;SDS011;29046;54.184;18.680;2023-02-11T05:37:16;25.75;;;13.73;;
43457;SDS011;29046;54.184;18.680;2023-02-11T05:40:03;25.60;;;11.68;;
43457;SDS011;29046;54.184;18.680;2023-02-11T05:42:37;30.90;;;14.65;;
43457;SDS011;29046;54.184;18.680;2023-02-11T05:45:25;29.10;;;14.23;;
43457;SDS011;29046;54.184;18.680;2023-02-11T05:47:59;25.88;;;13.35;;
43457;SDS011;29046;54.184;18.680;2023-02-11T05:50:47;31.00;;;14.35;;
43457;SDS011;29046;54.184;18.680;2023-02-11T05:53:20;28.65;;;12.85;;
43457;SDS011;29046;54.184;18.680;2023-02-11T05:56:08;36.67;;;13.02;;
43457;SDS011;29046;54.184;18.680;2023-02-11T05:58:49;25.20;;;12.73;;
43457;SDS011;29046;54.184;18.680;2023-02-11T06:01:30;19.88;;;10.48;;
43457;SDS011;29046;54.184;18.680;2023-02-11T06:04:10;28.52;;;13.68;;
43457;SDS011;29046;54.184;18.680;2023-02-11T06:06:58;20.83;;;9.77;;
43457;SDS011;29046;54.184;18.680;2023-02-11T06:09:39;20.85;;;10.82;;
43457;SDS011;29046;54.184;18.680;2023-02-11T06:12:19;16.60;;;8.77;;
43457;SDS011;29046;54.184;18.680;2023-02-11T06:14:59;16.40;;;9.35;;
43457;SDS011;29046;54.184;18.680;2023-02-11T06:17:40;20.75;;;10.98;;
43457;SDS011;29046;54.184;18.680;2023-02-11T06:20:20;18.30;;;10.05;;
43457;SDS011;29046;54.184;18.680;2023-02-11T06:23:08;28.73;;;12.52;;
43457;SDS011;29046;54.184;18.680;2023-02-11T06:25:42;20.52;;;11.05;;
43457;SDS011;29046;54.184;18.680;2023-02-11T06:28:31;24.02;;;11.73;;
43457;SDS011;29046;54.184;18.680;2023-02-11T06:31:14;20.70;;;11.18;;
43457;SDS011;29046;54.184;18.680;2023-02-11T06:34:02;15.93;;;11.02;;
43457;SDS011;29046;54.184;18.680;2023-02-11T06:36:43;16.02;;;9.45;;
43457;SDS011;29046;54.184;18.680;2023-02-11T06:39:24;23.85;;;12.38;;
43457;SDS011;29046;54.184;18.680;2023-02-11T06:42:04;13.35;;;7.88;;
43457;SDS011;29046;54.184;18.680;2023-02-11T06:44:52;15.68;;;9.00;;
43457;SDS011;29046;54.184;18.680;2023-02-11T06:47:26;20.15;;;8.82;;
43457;SDS011;29046;54.184;18.680;2023-02-11T06:50:14;16.70;;;7.10;;
43457;SDS011;29046;54.184;18.680;2023-02-11T06:52:57;17.95;;;8.68;;
43457;SDS011;29046;54.184;18.680;2023-02-11T06:55:38;26.45;;;9.80;;
43457;SDS011;29046;54.184;18.680;2023-02-11T06:58:20;12.10;;;6.47;;
43457;SDS011;29046;54.184;18.680;2023-02-11T07:01:02;16.02;;;8.32;;
43457;SDS011;29046;54.184;18.680;2023-02-11T07:03:45;19.00;;;8.77;;
43457;SDS011;29046;54.184;18.680;2023-02-11T07:06:26;16.88;;;7.72;;
43457;SDS011;29046;54.184;18.680;2023-02-11T07:09:07;21.42;;;7.63;;
43457;SDS011;29046;54.184;18.680;2023-02-11T07:11:55;9.93;;;5.15;;
43457;SDS011;29046;54.184;18.680;2023-02-11T07:14:49;15.38;;;7.38;;
43457;SDS011;29046;54.184;18.680;2023-02-11T07:17:23;11.18;;;7.53;;
43457;SDS011;29046;54.184;18.680;2023-02-11T07:20:11;13.07;;;7.88;;
43457;SDS011;29046;54.184;18.680;2023-02-11T07:22:46;12.23;;;6.53;;
43457;SDS011;29046;54.184;18.680;2023-02-11T07:25:41;12.52;;;6.15;;
43457;SDS011;29046;54.184;18.680;2023-02-11T07:28:35;12.02;;;6.97;;
43457;SDS011;29046;54.184;18.680;2023-02-11T07:31:20;13.63;;;7.32;;
43457;SDS011;29046;54.184;18.680;2023-02-11T07:34:15;4.53;;;3.13;;
43457;SDS011;29046;54.184;18.680;2023-02-11T07:36:49;10.48;;;5.18;;
43457;SDS011;29046;54.184;18.680;2023-02-11T07:39:37;8.30;;;5.78;;
43457;SDS011;29046;54.184;18.680;2023-02-11T07:42:10;14.82;;;8.02;;
43457;SDS011;29046;54.184;18.680;2023-02-11T07:45:05;11.90;;;5.70;;
43457;SDS011;29046;54.184;18.680;2023-02-11T07:48:00;11.27;;;5.47;;
43457;SDS011;29046;54.184;18.680;2023-02-11T07:50:33;15.35;;;7.30;;
43457;SDS011;29046;54.184;18.680;2023-02-11T07:53:28;12.75;;;5.47;;
43457;SDS011;29046;54.184;18.680;2023-02-11T07:56:02;16.63;;;6.78;;
43457;SDS011;29046;54.184;18.680;2023-02-11T07:58:50;10.18;;;5.30;;
43457;SDS011;29046;54.184;18.680;2023-02-11T08:01:23;13.38;;;7.20;;
43457;SDS011;29046;54.184;18.680;2023-02-11T08:04:19;17.73;;;7.38;;
43457;SDS011;29046;54.184;18.680;2023-02-11T08:07:14;5.63;;;4.20;;
43457;SDS011;29046;54.184;18.680;2023-02-11T08:09:48;14.27;;;8.05;;
43457;SDS011;29046;54.184;18.680;2023-02-11T08:12:36;15.15;;;7.55;;
43457;SDS011;29046;54.184;18.680;2023-02-11T08:15:09;7.80;;;3.78;;
43457;SDS011;29046;54.184;18.680;2023-02-11T08:17:57;12.45;;;6.68;;
43457;SDS011;29046;54.184;18.680;2023-02-11T08:20:32;17.30;;;7.10;;
43457;SDS011;29046;54.184;18.680;2023-02-11T08:23:26;16.33;;;7.60;;
43457;SDS011;29046;54.184;18.680;2023-02-11T08:26:24;8.50;;;4.50;;
43457;SDS011;29046;54.184;18.680;2023-02-11T08:29:20;13.57;;;6.13;;
43457;SDS011;29046;54.184;18.680;2023-02-11T08:31:54;7.75;;;4.47;;
43457;SDS011;29046;54.184;18.680;2023-02-11T08:34:52;13.32;;;6.13;;
43457;SDS011;29046;54.184;18.680;2023-02-11T08:37:27;6.95;;;4.32;;
43457;SDS011;29046;54.184;18.680;2023-02-11T08:40:14;5.07;;;2.83;;
43457;SDS011;29046;54.184;18.680;2023-02-11T08:42:48;8.63;;;3.28;;
43457;SDS011;29046;54.184;18.680;2023-02-11T08:45:36;9.93;;;5.47;;
43457;SDS011;29046;54.184;18.680;2023-02-11T08:48:10;4.97;;;2.17;;
43457;SDS011;29046;54.184;18.680;2023-02-11T08:50:58;17.23;;;3.42;;
43457;SDS011;29046;54.184;18.680;2023-02-11T08:53:33;7.40;;;4.30;;
43457;SDS011;29046;54.184;18.680;2023-02-11T08:56:27;10.60;;;4.15;;
43457;SDS011;29046;54.184;18.680;2023-02-11T08:59:11;5.75;;;3.25;;
43457;SDS011;29046;54.184;18.680;2023-02-11T09:01:53;6.05;;;2.92;;
43457;SDS011;29046;54.184;18.680;2023-02-11T09:04:34;5.30;;;3.15;;
43457;SDS011;29046;54.184;18.680;2023-02-11T09:07:22;4.82;;;2.13;;
43457;SDS011;29046;54.184;18.680;2023-02-11T09:10:02;7.35;;;4.30;;
43457;SDS011;29046;54.184;18.680;2023-02-11T09:12:43;10.07;;;4.15;;
43457;SDS011;29046;54.184;18.680;2023-02-11T09:15:24;5.40;;;3.03;;
43457;SDS011;29046;54.184;18.680;2023-02-11T09:18:11;6.15;;;3.13;;
43457;SDS011;29046;54.184;18.680;2023-02-11T09:20:51;10.52;;;4.85;;
43457;SDS011;29046;54.184;18.680;2023-02-11T09:23:32;7.43;;;3.40;;
43457;SDS011;29046;54.184;18.680;2023-02-11T09:26:15;12.07;;;4.22;;
43457;SDS011;29046;54.184;18.680;2023-02-11T09:28:57;11.13;;;4.47;;
43457;SDS011;29046;54.184;18.680;2023-02-11T09:31:38;7.38;;;4.15;;
43457;SDS011;29046;54.184;18.680;2023-02-11T09:34:19;7.43;;;3.10;;
43457;SDS011;29046;54.184;18.680;2023-02-11T09:37:00;7.07;;;3.05;;
43457;SDS011;29046;54.184;18.680;2023-02-11T09:39:47;13.48;;;4.63;;
43457;SDS011;29046;54.184;18.680;2023-02-11T09:45:26;9.60;;;5.32;;
43457;SDS011;29046;54.184;18.680;2023-02-11T09:48:14;5.15;;;2.95;;
43457;SDS011;29046;54.184;18.680;2023-02-11T09:51:03;2.22;;;1.60;;
43457;SDS011;29046;54.184;18.680;2023-02-11T09:53:39;3.83;;;2.30;;
43457;SDS011;29046;54.184;18.680;2023-02-11T09:56:31;2.42;;;1.10;;
43457;SDS011;29046;54.184;18.680;2023-02-11T09:59:08;5.93;;;2.03;;
43457;SDS011;29046;54.184;18.680;2023-02-11T10:22:09;5.28;;;2.33;;
43457;SDS011;29046;54.184;18.680;2023-02-11T10:24:51;2.67;;;1.60;;
43457;SDS011;29046;54.184;18.680;2023-02-11T10:27:41;5.72;;;1.58;;
43457;SDS011;29046;54.184;18.680;2023-02-11T10:30:25;1.63;;;0.95;;
43457;SDS011;29046;54.184;18.680;2023-02-11T10:33:22;2.20;;;0.93;;
43457;SDS011;29046;54.184;18.680;2023-02-11T10:36:04;1.60;;;1.08;;
43457;SDS011;29046;54.184;18.680;2023-02-11T10:38:52;2.47;;;1.42;;
43457;SDS011;29046;54.184;18.680;2023-02-11T10:41:33;2.92;;;1.58;;
43457;SDS011;29046;54.184;18.680;2023-02-11T10:44:33;5.53;;;2.13;;
43457;SDS011;29046;54.184;18.680;2023-02-11T10:47:30;6.05;;;2.85;;
43457;SDS011;29046;54.184;18.680;2023-02-11T10:50:26;5.22;;;2.25;;
43457;SDS011;29046;54.184;18.680;2023-02-11T10:53:17;8.77;;;3.63;;
43457;SDS011;29046;54.184;18.680;2023-02-11T10:55:53;11.68;;;2.83;;
43457;SDS011;29046;54.184;18.680;2023-02-11T10:58:45;11.75;;;3.67;;
43457;SDS011;29046;54.184;18.680;2023-02-11T11:01:46;8.15;;;3.10;;
43457;SDS011;29046;54.184;18.680;2023-02-11T11:04:41;5.38;;;2.42;;
43457;SDS011;29046;54.184;18.680;2023-02-11T11:07:36;13.48;;;4.45;;
43457;SDS011;29046;54.184;18.680;2023-02-11T11:16:05;6.90;;;2.75;;
43457;SDS011;29046;54.184;18.680;2023-02-11T11:19:13;8.35;;;3.60;;
43457;SDS011;29046;54.184;18.680;2023-02-11T11:21:50;9.02;;;3.67;;
43457;SDS011;29046;54.184;18.680;2023-02-11T11:24:44;12.20;;;3.90;;
43457;SDS011;29046;54.184;18.680;2023-02-11T11:27:20;15.07;;;4.22;;
43457;SDS011;29046;54.184;18.680;2023-02-11T11:30:13;6.07;;;2.70;;
43457;SDS011;29046;54.184;18.680;2023-02-11T11:32:48;4.60;;;2.10;;
43457;SDS011;29046;54.184;18.680;2023-02-11T11:35:36;5.97;;;2.58;;
43457;SDS011;29046;54.184;18.680;2023-02-11T11:38:10;12.60;;;5.80;;
43457;SDS011;29046;54.184;18.680;2023-02-11T11:41:14;8.30;;;2.80;;
43457;SDS011;29046;54.184;18.680;2023-02-11T11:55:46;9.65;;;3.20;;
43457;SDS011;29046;54.184;18.680;2023-02-11T11:58:31;5.57;;;2.83;;
43457;SDS011;29046;54.184;18.680;2023-02-11T12:13:56;14.20;;;4.23;;
43457;SDS011;29046;54.184;18.680;2023-02-11T12:20:37;18.23;;;4.05;;
43457;SDS011;29046;54.184;18.680;2023-02-11T12:26:21;15.25;;;3.03;;
43457;SDS011;29046;54.184;18.680;2023-02-11T12:31:58;11.13;;;2.53;;
43457;SDS011;29046;54.184;18.680;2023-02-11T12:43:38;11.25;;;3.65;;
43457;SDS011;29046;54.184;18.680;2023-02-11T12:46:33;31.95;;;6.18;;
43457;SDS011;29046;54.184;18.680;2023-02-11T12:54:59;12.23;;;2.50;;
43457;SDS011;29046;54.184;18.680;2023-02-11T12:58:01;14.35;;;3.03;;
43457;SDS011;29046;54.184;18.680;2023-02-11T13:01:00;12.63;;;4.43;;
43457;SDS011;29046;54.184;18.680;2023-02-11T13:03:39;12.65;;;3.58;;
43457;SDS011;29046;54.184;18.680;2023-02-11T13:06:45;22.10;;;8.73;;
43457;SDS011;29046;54.184;18.680;2023-02-11T13:09:32;40.20;;;14.93;;
43457;SDS011;29046;54.184;18.680;2023-02-11T13:12:29;27.67;;;8.40;;
43457;SDS011;29046;54.184;18.680;2023-02-11T13:15:23;32.72;;;6.95;;
43457;SDS011;29046;54.184;18.680;2023-02-11T13:23:39;13.38;;;2.97;;
43457;SDS011;29046;54.184;18.680;2023-02-11T13:26:18;16.25;;;4.60;;
43457;SDS011;29046;54.184;18.680;2023-02-11T13:32:08;5.20;;;2.17;;
43457;SDS011;29046;54.184;18.680;2023-02-11T13:35:24;35.75;;;5.82;;
43457;SDS011;29046;54.184;18.680;2023-02-11T13:38:35;20.25;;;5.45;;
43457;SDS011;29046;54.184;18.680;2023-02-11T13:46:48;14.18;;;2.80;;
43457;SDS011;29046;54.184;18.680;2023-02-11T13:49:37;9.70;;;3.05;;
43457;SDS011;29046;54.184;18.680;2023-02-11T13:52:17;15.05;;;2.95;;
43457;SDS011;29046;54.184;18.680;2023-02-11T13:55:13;13.43;;;3.22;;
43457;SDS011;29046;54.184;18.680;2023-02-11T13:58:34;4.80;;;2.35;;
43457;SDS011;29046;54.184;18.680;2023-02-11T14:01:03;10.50;;;4.25;;
43457;SDS011;29046;54.184;18.680;2023-02-11T14:07:31;14.10;;;3.70;;
43457;SDS011;29046;54.184;18.680;2023-02-11T14:14:02;10.30;;;2.15;;
43457;SDS011;29046;54.184;18.680;2023-02-11T14:19:51;13.43;;;4.82;;
43457;SDS011;29046;54.184;18.680;2023-02-11T14:22:46;13.30;;;3.10;;
43457;SDS011;29046;54.184;18.680;2023-02-11T14:25:42;19.77;;;5.00;;
43457;SDS011;29046;54.184;18.680;2023-02-11T14:28:47;22.40;;;4.28;;
43457;SDS011;29046;54.184;18.680;2023-02-11T14:31:25;14.07;;;3.25;;
43457;SDS011;29046;54.184;18.680;2023-02-11T14:40:24;5.78;;;2.17;;
43457;SDS011;29046;54.184;18.680;2023-02-11T14:43:23;6.25;;;1.95;;
43457;SDS011;29046;54.184;18.680;2023-02-11T14:46:05;8.93;;;2.30;;
43457;SDS011;29046;54.184;18.680;2023-02-11T14:48:53;4.50;;;1.88;;
43457;SDS011;29046;54.184;18.680;2023-02-11T14:51:37;6.00;;;1.40;;
43457;SDS011;29046;54.184;18.680;2023-02-11T14:54:26;7.10;;;1.80;;
43457;SDS011;29046;54.184;18.680;2023-02-11T14:57:18;9.43;;;2.80;;
43457;SDS011;29046;54.184;18.680;2023-02-11T15:00:13;13.02;;;2.78;;
43457;SDS011;29046;54.184;18.680;2023-02-11T15:02:55;5.43;;;2.05;;
43457;SDS011;29046;54.184;18.680;2023-02-11T15:05:55;20.77;;;3.25;;
43457;SDS011;29046;54.184;18.680;2023-02-11T15:08:55;6.82;;;2.80;;
43457;SDS011;29046;54.184;18.680;2023-02-11T15:11:51;9.05;;;2.70;;
43457;SDS011;29046;54.184;18.680;2023-02-11T15:17:13;14.93;;;5.35;;
43457;SDS011;29046;54.184;18.680;2023-02-11T15:19:50;11.98;;;3.90;;
43457;SDS011;29046;54.184;18.680;2023-02-11T15:22:40;18.45;;;5.55;;
43457;SDS011;29046;54.184;18.680;2023-02-11T15:25:16;19.45;;;5.43;;
43457;SDS011;29046;54.184;18.680;2023-02-11T15:28:10;12.43;;;3.40;;
43457;SDS011;29046;54.184;18.680;2023-02-11T15:30:56;25.90;;;8.15;;
43457;SDS011;29046;54.184;18.680;2023-02-11T15:33:42;33.47;;;6.88;;
43457;SDS011;29046;54.184;18.680;2023-02-11T15:36:23;25.90;;;6.30;;
43457;SDS011;29046;54.184;18.680;2023-02-11T15:39:14;30.92;;;8.13;;
43457;SDS011;29046;54.184;18.680;2023-02-11T15:41:56;66.50;;;12.70;;
43457;SDS011;29046;54.184;18.680;2023-02-11T15:45:09;19.55;;;5.30;;
43457;SDS011;29046;54.184;18.680;2023-02-11T15:47:48;76.63;;;13.38;;
43457;SDS011;29046;54.184;18.680;2023-02-11T15:50:35;82.35;;;15.23;;
43457;SDS011;29046;54.184;18.680;2023-02-11T15:56:17;93.60;;;19.02;;
43457;SDS011;29046;54.184;18.680;2023-02-11T15:58:52;76.13;;;17.50;;
43457;SDS011;29046;54.184;18.680;2023-02-11T16:01:41;55.58;;;14.80;;
43457;SDS011;29046;54.184;18.680;2023-02-11T16:04:19;39.05;;;10.50;;
43457;SDS011;29046;54.184;18.680;2023-02-11T16:07:35;82.80;;;15.75;;
43457;SDS011;29046;54.184;18.680;2023-02-11T16:10:26;49.88;;;10.50;;
43457;SDS011;29046;54.184;18.680;2023-02-11T16:15:52;61.28;;;16.42;;
43457;SDS011;29046;54.184;18.680;2023-02-11T16:18:37;26.63;;;7.65;;
43457;SDS011;29046;54.184;18.680;2023-02-11T16:21:40;44.35;;;13.13;;
43457;SDS011;29046;54.184;18.680;2023-02-11T16:24:30;28.08;;;8.70;;
43457;SDS011;29046;54.184;18.680;2023-02-11T16:27:24;41.13;;;15.75;;
43457;SDS011;29046;54.184;18.680;2023-02-11T16:33:19;27.38;;;5.88;;
43457;SDS011;29046;54.184;18.680;2023-02-11T16:36:14;27.05;;;6.90;;
43457;SDS011;29046;54.184;18.680;2023-02-11T16:38:57;16.73;;;4.55;;
43457;SDS011;29046;54.184;18.680;2023-02-11T16:41:38;22.00;;;4.43;;
43457;SDS011;29046;54.184;18.680;2023-02-11T16:44:19;15.30;;;4.15;;
43457;SDS011;29046;54.184;18.680;2023-02-11T16:47:01;61.75;;;13.45;;
43457;SDS011;29046;54.184;18.680;2023-02-11T16:49:43;50.58;;;9.77;;
43457;SDS011;29046;54.184;18.680;2023-02-11T16:52:24;67.60;;;12.27;;
43457;SDS011;29046;54.184;18.680;2023-02-11T16:55:05;35.13;;;7.85;;
43457;SDS011;29046;54.184;18.680;2023-02-11T16:57:54;52.03;;;9.93;;
43457;SDS011;29046;54.184;18.680;2023-02-11T17:00:34;37.72;;;7.80;;
43457;SDS011;29046;54.184;18.680;2023-02-11T17:03:24;36.60;;;7.18;;
43457;SDS011;29046;54.184;18.680;2023-02-11T17:06:02;7.60;;;3.35;;
43457;SDS011;29046;54.184;18.680;2023-02-11T17:08:50;19.98;;;4.88;;
43457;SDS011;29046;54.184;18.680;2023-02-11T17:11:24;18.60;;;5.72;;
43457;SDS011;29046;54.184;18.680;2023-02-11T17:14:12;30.73;;;6.70;;
43457;SDS011;29046;54.184;18.680;2023-02-11T17:16:53;18.60;;;6.38;;
43457;SDS011;29046;54.184;18.680;2023-02-11T17:19:41;10.38;;;3.13;;
43457;SDS011;29046;54.184;18.680;2023-02-11T17:22:15;19.90;;;6.00;;
43457;SDS011;29046;54.184;18.680;2023-02-11T17:25:03;31.15;;;6.25;;
43457;SDS011;29046;54.184;18.680;2023-02-11T17:27:38;25.60;;;7.55;;
43457;SDS011;29046;54.184;18.680;2023-02-11T17:30:26;15.98;;;3.38;;
43457;SDS011;29046;54.184;18.680;2023-02-11T17:33:00;32.30;;;6.43;;
43457;SDS011;29046;54.184;18.680;2023-02-11T17:35:48;16.00;;;2.95;;
43457;SDS011;29046;54.184;18.680;2023-02-11T17:38:29;18.95;;;4.32;;
43457;SDS011;29046;54.184;18.680;2023-02-11T17:41:17;12.98;;;2.92;;
43457;SDS011;29046;54.184;18.680;2023-02-11T17:43:51;21.35;;;4.20;;
43457;SDS011;29046;54.184;18.680;2023-02-11T17:46:39;13.85;;;2.47;;
43457;SDS011;29046;54.184;18.680;2023-02-11T17:49:19;10.30;;;2.47;;
43457;SDS011;29046;54.184;18.680;2023-02-11T17:52:00;15.18;;;4.93;;
43457;SDS011;29046;54.184;18.680;2023-02-11T17:54:40;12.15;;;3.72;;
43457;SDS011;29046;54.184;18.680;2023-02-11T17:57:21;13.30;;;3.70;;
43457;SDS011;29046;54.184;18.680;2023-02-11T18:00:03;13.80;;;4.22;;
43457;SDS011;29046;54.184;18.680;2023-02-11T18:02:43;29.88;;;7.22;;
43457;SDS011;29046;54.184;18.680;2023-02-11T18:05:24;21.00;;;6.15;;
43457;SDS011;29046;54.184;18.680;2023-02-11T18:08:12;18.75;;;5.43;;
43457;SDS011;29046;54.184;18.680;2023-02-11T18:10:45;8.23;;;2.58;;
43457;SDS011;29046;54.184;18.680;2023-02-11T18:13:40;8.95;;;2.13;;
43457;SDS011;29046;54.184;18.680;2023-02-11T18:16:14;2.90;;;1.30;;
43457;SDS011;29046;54.184;18.680;2023-02-11T18:19:02;2.55;;;1.20;;
43457;SDS011;29046;54.184;18.680;2023-02-11T18:21:36;31.35;;;9.77;;
43457;SDS011;29046;54.184;18.680;2023-02-11T18:24:24;8.95;;;1.42;;
43457;SDS011;29046;54.184;18.680;2023-02-11T18:26:58;4.50;;;1.58;;
43457;SDS011;29046;54.184;18.680;2023-02-11T18:29:53;8.95;;;1.67;;
43457;SDS011;29046;54.184;18.680;2023-02-11T18:32:48;7.60;;;1.23;;
43457;SDS011;29046;54.184;18.680;2023-02-11T18:35:26;12.85;;;3.28;;
43457;SDS011;29046;54.184;18.680;2023-02-11T18:38:14;6.80;;;1.35;;